Weather at Lugo Di Romagna Airport

Public forecast

Using degrees Celsius for public forecast. Weather courtesy of forecast.io.

Closest aviation weather report (METAR) to Lugo Di Romagna Airport

Report is more than 6 hours old.

Closest report is Forlì Airport, 15.3 nm (28.4 km) SE. Retrieved 2022/06/27 14:50 UTC (9 hours ago):

LIPK 271450Z 03008KT CAVOK 34/21 Q1012

Closest aviation forecast (TAF) to Lugo Di Romagna Airport

Closest forecast is Forlì Airport, 15.3 nm (28.4 km) SE. Retrieved 2022/06/27 18:07 UTC (5 hours ago):

TAF LIPK 271901Z 2718/2818 CNL